createdAt,value
2022-09-30T00:00:40.199Z,0.60
2022-09-30T00:03:43.668Z,0.60
2022-09-30T00:06:46.454Z,0.60
2022-09-30T00:09:48.787Z,0.88
2022-09-30T00:12:52.669Z,1.35
2022-09-30T00:15:54.858Z,0.70
2022-09-30T00:18:58.652Z,0.82
2022-09-30T00:22:00.763Z,0.68
2022-09-30T00:25:04.134Z,0.68
2022-09-30T00:28:08.048Z,0.60
2022-09-30T00:31:15.010Z,0.60
2022-09-30T00:34:17.499Z,0.80
2022-09-30T00:37:19.864Z,0.77
2022-09-30T00:40:23.000Z,0.60
2022-09-30T00:43:51.658Z,0.65
2022-09-30T00:46:56.463Z,0.70
2022-09-30T00:50:11.251Z,0.70
2022-09-30T00:53:29.955Z,0.55
2022-09-30T00:56:37.503Z,1.08
2022-09-30T00:59:58.418Z,0.90
2022-09-30T01:03:02.418Z,0.73
2022-09-30T01:06:04.987Z,0.90
2022-09-30T01:09:07.764Z,0.90
2022-09-30T01:12:17.009Z,0.90
2022-09-30T01:15:23.831Z,0.80
2022-09-30T01:18:51.602Z,0.80
2022-09-30T01:22:12.239Z,0.73
2022-09-30T01:25:51.560Z,0.90
2022-09-30T01:29:15.416Z,0.60
2022-09-30T01:32:31.079Z,1.25
2022-09-30T01:35:57.748Z,0.93
2022-09-30T01:39:11.791Z,0.80
2022-09-30T01:42:18.383Z,0.70
2022-09-30T01:45:32.722Z,0.70
2022-09-30T01:48:57.678Z,0.60
2022-09-30T01:52:26.104Z,0.93
2022-09-30T01:55:55.033Z,0.80
2022-09-30T01:59:03.145Z,0.63
2022-09-30T02:02:15.392Z,0.90
2022-09-30T02:06:06.856Z,0.65
2022-09-30T02:09:14.927Z,1.00
2022-09-30T02:12:21.372Z,0.82
2022-09-30T02:15:28.478Z,1.00
2022-09-30T02:18:42.339Z,0.68
2022-09-30T02:21:48.344Z,0.82
2022-09-30T02:24:56.826Z,0.90
2022-09-30T02:28:05.302Z,1.05
2022-09-30T02:31:11.371Z,0.70
2022-09-30T02:34:20.220Z,0.80
2022-09-30T02:37:28.564Z,0.90
2022-09-30T02:40:37.265Z,0.90
2022-09-30T02:43:42.238Z,1.00
2022-09-30T02:46:50.569Z,1.13
2022-09-30T02:50:11.797Z,1.40
2022-09-30T02:53:40.276Z,1.25
2022-09-30T02:56:47.872Z,1.00
2022-09-30T02:59:52.769Z,1.05
2022-09-30T03:03:00.836Z,1.20
2022-09-30T03:06:03.810Z,0.90
2022-09-30T03:09:08.062Z,1.00
2022-09-30T03:12:54.467Z,1.10
2022-09-30T03:16:17.783Z,0.85
2022-09-30T03:19:37.152Z,1.13
2022-09-30T03:22:42.376Z,0.90
2022-09-30T03:25:50.688Z,1.02
2022-09-30T03:29:01.276Z,1.10
2022-09-30T03:32:20.105Z,1.33
2022-09-30T03:35:31.535Z,0.80
2022-09-30T03:39:03.656Z,1.35
2022-09-30T03:42:22.717Z,1.30
2022-09-30T03:45:37.295Z,1.00
2022-09-30T03:48:41.854Z,1.00
2022-09-30T03:51:44.128Z,1.13
2022-09-30T03:54:59.083Z,1.17
2022-09-30T03:58:01.247Z,0.95
2022-09-30T04:01:03.533Z,0.82
2022-09-30T04:04:06.087Z,1.00
2022-09-30T04:07:10.356Z,1.10
2022-09-30T04:10:12.672Z,1.70
2022-09-30T04:13:14.838Z,1.00
2022-09-30T04:16:16.914Z,1.23
2022-09-30T04:19:18.978Z,1.05
2022-09-30T04:22:25.504Z,1.17
2022-09-30T04:25:29.466Z,1.20
2022-09-30T04:28:32.174Z,1.30
2022-09-30T04:31:34.334Z,1.10
2022-09-30T04:34:37.193Z,1.00
2022-09-30T04:37:47.056Z,1.17
2022-09-30T04:40:51.007Z,1.50
2022-09-30T04:43:53.158Z,1.13
2022-09-30T04:46:55.333Z,1.20
2022-09-30T04:49:57.583Z,0.80
2022-09-30T04:52:59.758Z,1.35
2022-09-30T04:56:02.415Z,1.15
2022-09-30T04:59:04.602Z,1.00
2022-09-30T05:02:06.842Z,1.40
2022-09-30T05:05:09.345Z,1.13
2022-09-30T05:08:11.670Z,0.93
2022-09-30T05:11:17.893Z,1.10
2022-09-30T05:14:20.052Z,1.20
2022-09-30T05:17:22.312Z,1.08
2022-09-30T05:20:24.765Z,1.27
2022-09-30T05:23:30.511Z,0.80
2022-09-30T05:26:33.099Z,1.13
2022-09-30T05:29:35.541Z,0.95
2022-09-30T05:32:37.875Z,1.02
2022-09-30T05:35:43.625Z,1.20
2022-09-30T05:38:45.729Z,1.10
2022-09-30T05:41:47.854Z,1.00
2022-09-30T05:44:50.011Z,1.83
2022-09-30T05:47:55.947Z,2.30
2022-09-30T05:51:01.746Z,2.10
2022-09-30T05:54:04.007Z,2.45
2022-09-30T05:57:07.953Z,2.88
2022-09-30T06:00:10.859Z,2.45
2022-09-30T06:03:16.986Z,2.08
2022-09-30T06:06:21.845Z,2.13
2022-09-30T06:09:24.174Z,2.38
2022-09-30T06:12:28.839Z,1.98
2022-09-30T06:15:31.338Z,1.90
2022-09-30T06:18:34.086Z,1.80
2022-09-30T06:21:36.194Z,1.88
2022-09-30T06:24:38.335Z,1.58
2022-09-30T06:27:46.057Z,1.63
2022-09-30T06:30:48.555Z,1.80
2022-09-30T06:33:53.498Z,1.98
2022-09-30T06:36:55.726Z,1.50
2022-09-30T06:39:57.860Z,1.70
2022-09-30T06:43:01.429Z,1.70
2022-09-30T06:46:13.939Z,1.50
2022-09-30T06:49:19.736Z,1.40
2022-09-30T06:52:21.989Z,1.42
2022-09-30T06:55:24.506Z,1.40
2022-09-30T06:58:26.688Z,1.70
2022-09-30T07:01:30.112Z,1.77
2022-09-30T07:04:32.409Z,1.30
2022-09-30T07:07:37.439Z,1.67
2022-09-30T07:10:39.903Z,1.20
2022-09-30T07:13:43.851Z,1.48
2022-09-30T07:16:46.584Z,1.70
2022-09-30T07:19:48.740Z,1.20
2022-09-30T07:22:51.076Z,1.33
2022-09-30T07:25:56.938Z,1.58
2022-09-30T07:29:00.360Z,1.35
2022-09-30T07:32:02.639Z,1.17
2022-09-30T07:35:06.301Z,1.63
2022-09-30T07:38:09.052Z,1.52
2022-09-30T07:41:17.102Z,1.73
2022-09-30T07:44:20.393Z,1.80
2022-09-30T07:47:22.943Z,1.50
2022-09-30T07:50:25.206Z,1.50
2022-09-30T07:53:27.331Z,1.70
2022-09-30T07:56:45.546Z,1.60
2022-09-30T07:59:52.184Z,1.67
2022-09-30T08:02:54.363Z,1.52
2022-09-30T08:05:56.551Z,1.42
2022-09-30T08:08:59.329Z,1.60
2022-09-30T08:12:04.024Z,1.50
2022-09-30T08:15:09.728Z,1.30
2022-09-30T08:18:11.934Z,1.20
2022-09-30T08:21:14.420Z,1.40
2022-09-30T08:24:17.026Z,1.27
2022-09-30T08:27:19.129Z,1.20
2022-09-30T08:30:21.481Z,1.40
2022-09-30T08:33:23.564Z,1.13
2022-09-30T08:36:27.080Z,1.30
2022-09-30T08:39:29.180Z,0.98
2022-09-30T08:42:59.420Z,1.13
2022-09-30T08:46:09.333Z,1.27
2022-09-30T08:49:32.736Z,1.33
2022-09-30T08:52:49.143Z,1.10
2022-09-30T08:55:54.813Z,1.30
2022-09-30T08:59:31.959Z,1.17
2022-09-30T09:02:38.226Z,0.93
2022-09-30T09:05:57.578Z,0.75
2022-09-30T09:09:06.723Z,1.00
2022-09-30T09:12:41.899Z,0.80
2022-09-30T09:16:08.158Z,0.95
2022-09-30T09:19:15.690Z,0.85
2022-09-30T09:22:21.257Z,0.55
2022-09-30T09:25:28.318Z,0.97
2022-09-30T09:28:48.154Z,0.93
2022-09-30T09:31:54.690Z,0.88
2022-09-30T09:35:07.055Z,1.00
2022-09-30T09:38:25.872Z,0.98
2022-09-30T09:41:59.174Z,0.80
2022-09-30T09:45:16.539Z,0.93
2022-09-30T09:48:19.333Z,0.90
2022-09-30T09:51:47.450Z,0.85
2022-09-30T09:54:53.036Z,0.80
2022-09-30T09:58:14.352Z,0.90
2022-09-30T10:01:33.042Z,0.90
2022-09-30T10:04:38.950Z,0.80
2022-09-30T10:07:41.208Z,1.00
2022-09-30T10:10:55.330Z,0.90
2022-09-30T10:13:59.861Z,0.80
2022-09-30T10:17:04.138Z,0.80
2022-09-30T10:20:07.470Z,0.90
2022-09-30T10:23:27.702Z,0.70
2022-09-30T10:29:35.146Z,0.60
2022-09-30T10:32:37.350Z,0.73
2022-09-30T10:36:10.549Z,1.15
2022-09-30T10:39:38.638Z,0.80
2022-09-30T10:42:45.757Z,0.88
2022-09-30T10:46:07.021Z,0.70
2022-09-30T10:49:25.158Z,0.80
2022-09-30T10:52:32.587Z,0.70
2022-09-30T10:55:42.108Z,0.85
2022-09-30T10:58:52.243Z,1.13
2022-09-30T11:02:06.144Z,0.90
2022-09-30T11:05:23.061Z,0.82
2022-09-30T11:08:29.305Z,0.73
2022-09-30T11:11:44.290Z,0.80
2022-09-30T11:14:55.599Z,0.90
2022-09-30T11:18:00.351Z,0.90
2022-09-30T11:21:10.870Z,0.90
2022-09-30T11:24:44.400Z,1.00
2022-09-30T11:27:57.554Z,1.00
2022-09-30T11:31:16.218Z,0.88
2022-09-30T11:34:33.853Z,1.00
2022-09-30T11:37:55.403Z,0.80
2022-09-30T11:41:11.529Z,1.00
2022-09-30T11:44:32.043Z,0.95
2022-09-30T11:47:49.516Z,0.80
2022-09-30T11:51:30.605Z,1.08
2022-09-30T11:54:44.730Z,1.00
2022-09-30T11:57:50.115Z,0.98
2022-09-30T12:01:10.191Z,1.20
2022-09-30T12:07:23.683Z,0.80
2022-09-30T12:10:40.110Z,1.20
2022-09-30T12:13:51.905Z,1.00
2022-09-30T12:16:56.886Z,0.95
2022-09-30T12:20:07.471Z,1.33
2022-09-30T12:23:32.779Z,1.20
2022-09-30T12:26:35.822Z,1.23
2022-09-30T12:30:01.316Z,1.60
2022-09-30T12:33:12.637Z,1.42
2022-09-30T12:36:55.575Z,1.40
2022-09-30T12:40:07.760Z,1.40
2022-09-30T12:43:57.205Z,1.30
2022-09-30T12:47:36.041Z,1.30
2022-09-30T12:50:46.125Z,1.02
2022-09-30T12:57:03.432Z,1.25
2022-09-30T13:00:17.669Z,1.40
2022-09-30T13:03:20.608Z,1.20
2022-09-30T13:06:24.533Z,1.45
2022-09-30T13:09:36.196Z,1.23
2022-09-30T13:12:45.785Z,1.85
2022-09-30T13:15:48.126Z,1.55
2022-09-30T13:18:53.220Z,1.48
2022-09-30T13:22:17.937Z,1.60
2022-09-30T13:25:20.431Z,1.58
2022-09-30T13:28:22.643Z,1.52
2022-09-30T13:31:26.570Z,1.48
2022-09-30T13:34:32.831Z,1.33
2022-09-30T13:37:38.339Z,1.63
2022-09-30T13:41:05.671Z,1.42
2022-09-30T13:44:24.386Z,1.55
2022-09-30T13:47:43.234Z,1.17
2022-09-30T13:50:52.772Z,1.33
2022-09-30T13:54:00.225Z,1.45
2022-09-30T13:57:06.479Z,1.65
2022-09-30T14:00:13.883Z,1.52
2022-09-30T14:03:16.407Z,1.30
2022-09-30T14:07:00.463Z,1.70
2022-09-30T14:10:18.312Z,2.00
2022-09-30T14:13:47.479Z,1.80
2022-09-30T14:16:56.067Z,1.33
2022-09-30T14:20:33.976Z,1.50
2022-09-30T14:23:37.125Z,1.38
2022-09-30T14:26:55.069Z,1.50
2022-09-30T14:30:21.181Z,1.70
2022-09-30T14:33:28.438Z,1.20
2022-09-30T14:36:31.218Z,1.98
2022-09-30T14:39:34.195Z,1.52
2022-09-30T14:42:41.265Z,1.50
2022-09-30T14:45:46.802Z,1.42
2022-09-30T14:48:50.778Z,1.38
2022-09-30T14:51:53.646Z,1.60
2022-09-30T14:54:58.158Z,1.40
2022-09-30T14:58:19.343Z,1.75
2022-09-30T15:01:23.257Z,1.90
2022-09-30T15:04:30.192Z,1.38
2022-09-30T15:07:32.864Z,1.90
2022-09-30T15:10:36.360Z,1.70
2022-09-30T15:13:40.605Z,1.73
2022-09-30T15:16:52.387Z,1.55
2022-09-30T15:19:56.099Z,1.40
2022-09-30T15:23:06.587Z,2.22
2022-09-30T15:26:13.028Z,1.65
2022-09-30T15:29:16.974Z,1.83
2022-09-30T15:32:23.864Z,1.67
2022-09-30T15:35:27.086Z,1.90
2022-09-30T15:38:32.056Z,1.70
2022-09-30T15:41:43.581Z,1.75
2022-09-30T15:44:46.179Z,2.10
2022-09-30T15:47:58.138Z,2.22
2022-09-30T15:51:01.628Z,1.90
2022-09-30T15:54:16.146Z,1.58
2022-09-30T15:57:47.118Z,1.60
2022-09-30T16:00:52.441Z,1.33
2022-09-30T16:04:00.883Z,1.38
2022-09-30T16:07:09.729Z,1.75
2022-09-30T16:10:20.434Z,2.10
2022-09-30T16:13:26.610Z,1.75
2022-09-30T16:16:32.507Z,1.52
2022-09-30T16:19:35.517Z,1.52
2022-09-30T16:22:40.957Z,1.40
2022-09-30T16:25:44.560Z,1.83
2022-09-30T16:28:47.798Z,1.95
2022-09-30T16:31:53.763Z,1.67
2022-09-30T16:34:57.875Z,1.40
2022-09-30T16:38:06.895Z,1.50
2022-09-30T16:41:13.600Z,1.70
2022-09-30T16:44:16.118Z,1.77
2022-09-30T16:47:21.202Z,1.38
2022-09-30T16:50:43.821Z,1.67
2022-09-30T16:53:48.147Z,2.22
2022-09-30T16:56:50.800Z,1.38
2022-09-30T16:59:53.378Z,1.88
2022-09-30T17:02:56.075Z,1.70
2022-09-30T17:06:01.184Z,1.80
2022-09-30T17:09:06.740Z,1.88
2022-09-30T17:12:12.258Z,1.50
2022-09-30T17:15:15.194Z,1.50
2022-09-30T17:18:18.233Z,1.42
2022-09-30T17:21:23.098Z,1.38
2022-09-30T17:24:25.662Z,1.60
2022-09-30T17:27:29.878Z,1.35
2022-09-30T17:30:33.649Z,1.63
2022-09-30T17:33:38.962Z,1.63
2022-09-30T17:36:41.866Z,1.60
2022-09-30T17:39:44.411Z,1.63
2022-09-30T17:43:05.346Z,1.63
2022-09-30T17:46:08.027Z,1.73
2022-09-30T17:49:12.519Z,1.70
2022-09-30T17:52:15.692Z,1.50
2022-09-30T17:55:18.302Z,1.63
2022-09-30T17:58:20.816Z,1.90
2022-09-30T18:01:23.671Z,2.08
2022-09-30T18:04:29.450Z,1.63
2022-09-30T18:07:32.092Z,1.73
2022-09-30T18:10:37.067Z,2.05
2022-09-30T18:13:39.562Z,1.52
2022-09-30T18:16:42.660Z,1.80
2022-09-30T18:19:45.428Z,1.45
2022-09-30T18:22:48.126Z,1.60
2022-09-30T18:25:56.232Z,2.10
2022-09-30T18:28:58.903Z,1.88
2022-09-30T18:32:02.463Z,2.10
2022-09-30T18:35:09.968Z,1.85
2022-09-30T18:38:14.922Z,2.13
2022-09-30T18:41:17.733Z,1.85
2022-09-30T18:44:20.341Z,1.67
2022-09-30T18:47:23.248Z,1.60
2022-09-30T18:50:28.485Z,1.58
2022-09-30T18:53:34.536Z,2.03
2022-09-30T18:56:37.213Z,1.60
2022-09-30T18:59:40.209Z,2.00
2022-09-30T19:02:44.782Z,1.80
2022-09-30T19:05:47.427Z,1.67
2022-09-30T19:08:50.242Z,2.03
2022-09-30T19:11:53.002Z,2.03
2022-09-30T19:14:55.624Z,2.33
2022-09-30T19:17:58.746Z,1.60
2022-09-30T19:21:10.184Z,2.00
2022-09-30T19:24:12.681Z,1.88
2022-09-30T19:27:15.236Z,2.10
2022-09-30T19:30:17.913Z,1.90
2022-09-30T19:33:26.249Z,1.77
2022-09-30T19:36:32.239Z,1.73
2022-09-30T19:39:45.383Z,2.42
2022-09-30T19:42:49.715Z,1.77
2022-09-30T19:46:04.435Z,1.73
2022-09-30T19:49:07.142Z,2.08
2022-09-30T19:52:20.008Z,1.52
2022-09-30T19:55:25.387Z,2.17
2022-09-30T19:58:32.571Z,1.98
2022-09-30T20:01:35.693Z,2.47
2022-09-30T20:04:39.733Z,2.15
2022-09-30T20:07:42.290Z,2.47
2022-09-30T20:10:45.101Z,2.42
2022-09-30T20:14:12.423Z,2.25
2022-09-30T20:17:14.715Z,2.35
2022-09-30T20:20:35.594Z,2.00
2022-09-30T20:23:39.125Z,2.42
2022-09-30T20:26:43.370Z,2.45
2022-09-30T20:29:46.000Z,2.45
2022-09-30T20:32:48.626Z,2.28
2022-09-30T20:35:51.699Z,2.25
2022-09-30T20:38:59.212Z,2.63
2022-09-30T20:42:01.443Z,2.40
2022-09-30T20:45:06.316Z,2.33
2022-09-30T20:48:08.672Z,2.72
2022-09-30T20:51:15.417Z,2.92
2022-09-30T20:54:17.959Z,2.30
2022-09-30T20:57:20.587Z,3.58
2022-09-30T21:00:24.200Z,2.85
2022-09-30T21:03:29.551Z,2.80
2022-09-30T21:06:33.427Z,2.85
2022-09-30T21:09:37.141Z,3.03
2022-09-30T21:12:39.730Z,3.00
2022-09-30T21:15:42.878Z,3.30
2022-09-30T21:18:46.096Z,3.30
2022-09-30T21:21:48.878Z,3.08
2022-09-30T21:24:51.405Z,3.53
2022-09-30T21:27:53.997Z,3.35
2022-09-30T21:30:56.716Z,3.45
2022-09-30T21:34:00.049Z,3.92
2022-09-30T21:37:02.671Z,3.58
2022-09-30T21:40:05.450Z,3.50
2022-09-30T21:43:08.048Z,3.58
2022-09-30T21:46:12.379Z,3.90
2022-09-30T21:49:14.918Z,3.72
2022-09-30T21:52:17.304Z,3.17
2022-09-30T21:55:19.660Z,3.45
2022-09-30T21:58:24.040Z,3.42
2022-09-30T22:01:26.252Z,3.90
2022-09-30T22:04:28.451Z,3.78
2022-09-30T22:07:33.172Z,3.63
2022-09-30T22:10:35.588Z,3.72
2022-09-30T22:13:40.927Z,3.75
2022-09-30T22:16:44.558Z,3.30
2022-09-30T22:19:46.867Z,3.22
2022-09-30T22:22:48.981Z,3.25
2022-09-30T22:25:51.106Z,3.75
2022-09-30T22:28:59.539Z,4.03
2022-09-30T22:32:02.546Z,4.03
2022-09-30T22:35:23.874Z,4.40
2022-09-30T22:38:26.352Z,4.13
2022-09-30T22:41:28.813Z,4.07
2022-09-30T22:44:35.271Z,3.63
2022-09-30T22:47:39.180Z,4.15
2022-09-30T22:50:41.358Z,4.13
2022-09-30T22:53:43.492Z,4.93
2022-09-30T22:56:46.069Z,4.97
2022-09-30T22:59:48.286Z,4.50
2022-09-30T23:02:52.928Z,3.97
2022-09-30T23:06:02.887Z,4.85
2022-09-30T23:09:06.272Z,4.80
2022-09-30T23:12:09.333Z,4.32
2022-09-30T23:15:11.786Z,4.97
2022-09-30T23:18:17.169Z,5.10
2022-09-30T23:21:19.881Z,5.28
2022-09-30T23:24:22.025Z,4.75
2022-09-30T23:27:24.111Z,5.53
2022-09-30T23:30:27.929Z,5.28
2022-09-30T23:33:30.732Z,4.63
2022-09-30T23:36:36.387Z,5.88
2022-09-30T23:39:38.529Z,5.55
2022-09-30T23:42:40.683Z,5.60
2022-09-30T23:45:43.446Z,5.90
2022-09-30T23:48:46.025Z,5.13
2022-09-30T23:51:48.243Z,5.50
2022-09-30T23:54:50.409Z,4.93
2022-09-30T23:57:52.637Z,5.38
